createdAt,value
2022-08-09T00:00:13.361Z,98117.75
2022-08-09T00:02:49.001Z,98123.88
2022-08-09T00:06:15.962Z,98124.25
2022-08-09T00:08:04.089Z,98117.28
2022-08-09T00:10:37.425Z,98126.19
2022-08-09T00:13:06.723Z,98110.00
2022-08-09T00:15:58.118Z,98112.34
2022-08-09T00:18:29.026Z,98129.66
2022-08-09T00:20:55.711Z,98100.84
2022-08-09T00:23:56.142Z,98107.03
2022-08-09T00:26:10.979Z,98114.50
2022-08-09T00:28:38.423Z,98113.22
2022-08-09T00:31:50.474Z,98110.84
2022-08-09T00:33:53.726Z,98114.66
2022-08-09T00:36:20.906Z,98113.97
2022-08-09T00:38:50.582Z,98112.94
2022-08-09T00:44:11.267Z,98105.78
2022-08-09T00:44:15.691Z,98114.19
2022-08-09T00:46:57.712Z,98098.06
2022-08-09T00:49:31.276Z,98103.56
2022-08-09T00:52:02.193Z,98106.41
2022-08-09T00:54:35.912Z,98107.56
2022-08-09T00:57:10.436Z,98109.13
2022-08-09T00:59:41.378Z,98108.31
2022-08-09T01:02:22.584Z,98112.00
2022-08-09T01:05:14.087Z,98118.31
2022-08-09T01:08:00.855Z,98116.19
2022-08-09T01:10:43.040Z,98123.69
2022-08-09T01:13:31.110Z,98121.91
2022-08-09T01:16:10.158Z,98131.38
2022-08-09T01:18:39.773Z,98122.25
2022-08-09T01:21:45.202Z,98124.34
2022-08-09T01:24:50.430Z,98131.13
2022-08-09T01:27:20.198Z,98124.19
2022-08-09T01:29:56.031Z,98121.59
2022-08-09T01:32:31.947Z,98119.66
2022-08-09T01:35:06.965Z,98131.19
2022-08-09T01:38:07.804Z,98126.72
2022-08-09T01:40:33.421Z,98133.38
2022-08-09T01:43:00.505Z,98126.78
2022-08-09T01:45:29.199Z,98112.09
2022-08-09T01:47:56.966Z,98125.00
2022-08-09T01:50:29.948Z,98120.16
2022-08-09T01:53:19.419Z,98115.53
2022-08-09T01:55:47.875Z,98117.34
2022-08-09T01:58:15.278Z,98124.00
2022-08-09T02:00:46.325Z,98112.75
2022-08-09T02:03:18.502Z,98119.03
2022-08-09T02:06:03.420Z,98120.66
2022-08-09T02:08:36.109Z,98113.41
2022-08-09T02:11:18.832Z,98118.16
2022-08-09T02:13:55.364Z,98127.78
2022-08-09T02:16:59.307Z,98121.06
2022-08-09T02:19:22.591Z,98130.53
2022-08-09T02:21:55.676Z,98131.00
2022-08-09T02:24:26.039Z,98131.69
2022-08-09T02:26:55.658Z,98121.09
2022-08-09T02:29:27.819Z,98112.50
2022-08-09T02:31:59.723Z,98123.06
2022-08-09T02:34:41.712Z,98123.06
2022-08-09T02:37:21.623Z,98129.19
2022-08-09T02:40:01.852Z,98121.31
2022-08-09T02:42:36.085Z,98126.44
2022-08-09T02:45:12.118Z,98131.72
2022-08-09T02:47:57.573Z,98125.13
2022-08-09T02:50:29.611Z,98124.47
2022-08-09T02:53:25.992Z,98118.88
2022-08-09T02:55:57.474Z,98121.22
2022-08-09T02:58:36.433Z,98116.75
2022-08-09T03:01:06.100Z,98113.78
2022-08-09T03:04:05.805Z,98115.28
2022-08-09T03:06:23.027Z,98109.34
2022-08-09T03:08:52.399Z,98096.41
2022-08-09T03:12:04.775Z,98107.34
2022-08-09T03:14:10.034Z,98106.69
2022-08-09T03:16:41.623Z,98108.03
2022-08-09T03:19:14.364Z,98109.56
2022-08-09T03:21:58.235Z,98110.03
2022-08-09T03:24:31.471Z,98112.50
2022-08-09T03:27:10.657Z,98118.00
2022-08-09T03:29:56.949Z,98118.69
2022-08-09T03:32:29.565Z,98122.47
2022-08-09T03:34:58.042Z,98123.31
2022-08-09T03:37:54.776Z,98125.63
2022-08-09T03:40:13.091Z,98129.44
2022-08-09T03:42:40.131Z,98129.44
2022-08-09T03:45:10.735Z,98127.94
2022-08-09T03:47:40.078Z,98124.28
2022-08-09T03:50:11.530Z,98127.75
2022-08-09T03:52:40.423Z,98128.94
2022-08-09T03:55:10.223Z,98129.28
2022-08-09T03:57:44.677Z,98131.59
2022-08-09T04:00:20.524Z,98125.16
2022-08-09T04:02:47.600Z,98132.09
2022-08-09T04:05:27.435Z,98132.91
2022-08-09T04:07:57.303Z,98131.22
2022-08-09T04:10:28.823Z,98132.56
2022-08-09T04:13:01.230Z,98132.56
2022-08-09T04:16:18.007Z,98136.53
2022-08-09T04:18:17.838Z,98141.84
2022-08-09T04:20:46.448Z,98136.06
2022-08-09T04:23:17.014Z,98137.88
2022-08-09T04:25:44.169Z,98141.03
2022-08-09T04:28:10.718Z,98149.94
2022-08-09T04:30:39.094Z,98145.50
2022-08-09T04:33:11.439Z,98142.69
2022-08-09T04:35:42.357Z,98145.50
2022-08-09T04:38:09.114Z,98143.16
2022-08-09T04:40:54.260Z,98144.13
2022-08-09T04:43:25.254Z,98150.41
2022-08-09T04:45:53.984Z,98155.03
2022-08-09T04:48:21.101Z,98149.75
2022-08-09T04:50:50.327Z,98151.03
2022-08-09T04:53:16.959Z,98158.16
2022-08-09T04:55:58.183Z,98147.41
2022-08-09T04:58:31.715Z,98149.69
2022-08-09T05:01:01.337Z,98158.28
2022-08-09T05:03:41.286Z,98153.63
2022-08-09T05:06:25.737Z,98155.44
2022-08-09T05:09:00.247Z,98156.13
2022-08-09T05:11:30.578Z,98154.31
2022-08-09T05:13:59.202Z,98153.78
2022-08-09T05:16:28.442Z,98162.69
2022-08-09T05:18:59.970Z,98162.16
2022-08-09T05:21:30.054Z,98162.31
2022-08-09T05:24:00.322Z,98158.53
2022-08-09T05:26:40.999Z,98161.47
2022-08-09T05:29:24.240Z,98161.63
2022-08-09T05:32:00.319Z,98158.75
2022-08-09T05:34:31.411Z,98164.03
2022-08-09T05:37:06.462Z,98160.81
2022-08-09T05:39:43.661Z,98162.88
2022-08-09T05:42:17.456Z,98164.16
2022-08-09T05:44:51.833Z,98162.34
2022-08-09T05:47:23.056Z,98167.19
2022-08-09T05:50:30.248Z,98170.00
2022-08-09T05:52:42.276Z,98172.63
2022-08-09T05:55:18.199Z,98173.22
2022-08-09T05:57:50.792Z,98160.03
2022-08-09T06:00:25.542Z,98167.97
2022-08-09T06:02:54.707Z,98174.22
2022-08-09T06:05:50.087Z,98174.19
2022-08-09T06:08:11.110Z,98173.69
2022-08-09T06:10:38.221Z,98168.31
2022-08-09T06:13:12.119Z,98171.47
2022-08-09T06:15:45.064Z,98168.72
2022-08-09T06:18:13.859Z,98170.88
2022-08-09T06:20:42.629Z,98170.41
2022-08-09T06:23:12.051Z,98168.31
2022-08-09T06:25:43.331Z,98169.84
2022-08-09T06:28:10.071Z,98176.91
2022-08-09T06:30:36.905Z,98173.47
2022-08-09T06:33:30.163Z,98174.50
2022-08-09T06:35:57.138Z,98173.06
2022-08-09T06:38:36.358Z,98173.28
2022-08-09T06:41:04.894Z,98170.38
2022-08-09T06:43:45.519Z,98169.31
2022-08-09T06:46:39.025Z,98171.41
2022-08-09T06:49:00.315Z,98172.00
2022-08-09T06:51:27.087Z,98175.00
2022-08-09T06:53:55.057Z,98166.50
2022-08-09T06:56:21.606Z,98171.28
2022-08-09T07:00:53.774Z,98170.22
2022-08-09T07:01:53.896Z,98162.00
2022-08-09T07:04:24.339Z,98173.78
2022-08-09T07:06:53.192Z,98173.78
2022-08-09T07:09:55.468Z,98169.09
2022-08-09T07:12:06.841Z,98169.66
2022-08-09T07:14:40.534Z,98177.25
2022-08-09T07:17:08.225Z,98174.13
2022-08-09T07:19:34.936Z,98177.94
2022-08-09T07:22:01.491Z,98173.97
2022-08-09T07:24:40.735Z,98182.91
2022-08-09T07:27:27.137Z,98173.88
2022-08-09T07:29:59.498Z,98186.06
2022-08-09T07:32:33.516Z,98175.34
2022-08-09T07:35:12.090Z,98184.03
2022-08-09T07:37:45.429Z,98172.72
2022-08-09T07:40:17.398Z,98176.84
2022-08-09T07:42:55.520Z,98164.69
2022-08-09T07:45:37.366Z,98167.84
2022-08-09T07:48:06.400Z,98175.34
2022-08-09T07:50:36.447Z,98170.16
2022-08-09T07:53:04.792Z,98170.50
2022-08-09T07:55:41.334Z,98169.09
2022-08-09T07:58:18.444Z,98162.06
2022-08-09T08:00:55.779Z,98159.75
2022-08-09T08:03:31.603Z,98165.66
2022-08-09T08:05:58.602Z,98169.56
2022-08-09T08:09:01.457Z,98167.25
2022-08-09T08:12:09.661Z,98170.25
2022-08-09T08:13:59.025Z,98178.69
2022-08-09T08:16:31.512Z,98171.59
2022-08-09T08:18:59.701Z,98164.81
2022-08-09T08:21:30.425Z,98167.84
2022-08-09T08:23:56.988Z,98172.78
2022-08-09T08:26:47.410Z,98164.91
2022-08-09T08:29:15.009Z,98166.47
2022-08-09T08:32:03.318Z,98168.03
2022-08-09T08:34:33.568Z,98157.88
2022-08-09T08:37:01.739Z,98157.44
2022-08-09T08:39:28.755Z,98160.41
2022-08-09T08:41:55.508Z,98164.63
2022-08-09T08:44:29.538Z,98162.09
2022-08-09T08:47:02.960Z,98165.44
2022-08-09T08:49:48.191Z,98164.13
2022-08-09T08:52:52.540Z,98162.69
2022-08-09T08:55:08.563Z,98163.25
2022-08-09T08:57:37.218Z,98167.25
2022-08-09T09:00:12.585Z,98166.81
2022-08-09T09:02:44.604Z,98171.31
2022-08-09T09:05:33.137Z,98160.81
2022-08-09T09:08:30.221Z,98159.66
2022-08-09T09:10:57.706Z,98152.69
2022-08-09T09:13:24.337Z,98170.09
2022-08-09T09:16:09.196Z,98173.81
2022-08-09T09:18:36.370Z,98173.00
2022-08-09T09:21:08.790Z,98169.59
2022-08-09T09:23:49.607Z,98178.47
2022-08-09T09:26:23.842Z,98170.63
2022-08-09T09:29:03.724Z,98168.94
2022-08-09T09:32:14.689Z,98177.69
2022-08-09T09:34:23.756Z,98181.91
2022-08-09T09:36:54.131Z,98190.34
2022-08-09T09:39:50.379Z,98178.44
2022-08-09T09:42:24.447Z,98191.81
2022-08-09T09:44:56.988Z,98169.28
2022-08-09T09:47:24.162Z,98177.66
2022-08-09T09:50:15.206Z,98175.56
2022-08-09T09:52:56.239Z,98176.88
2022-08-09T09:55:27.890Z,98169.38
2022-08-09T09:58:16.976Z,98169.56
2022-08-09T10:00:59.596Z,98151.81
2022-08-09T10:03:43.780Z,98184.44
2022-08-09T10:06:12.556Z,98176.06
2022-08-09T10:08:44.268Z,98174.25
2022-08-09T10:12:01.131Z,98177.34
2022-08-09T10:14:30.314Z,98171.13
2022-08-09T10:17:11.270Z,98171.13
2022-08-09T10:19:45.818Z,98173.84
2022-08-09T10:22:12.619Z,98165.13
2022-08-09T10:24:40.019Z,98157.84
2022-08-09T10:27:16.973Z,98159.41
2022-08-09T10:30:48.061Z,98167.13
2022-08-09T10:32:40.294Z,98162.50
2022-08-09T10:35:10.330Z,98162.94
2022-08-09T10:37:38.367Z,98167.06
2022-08-09T10:40:07.046Z,98165.00
2022-08-09T10:42:38.860Z,98161.44
2022-08-09T10:45:10.641Z,98156.72
2022-08-09T10:48:25.914Z,98159.13
2022-08-09T10:51:06.824Z,98158.72
2022-08-09T10:54:04.798Z,98165.31
2022-08-09T10:56:33.890Z,98174.91
2022-08-09T10:59:23.226Z,98169.19
2022-08-09T11:03:11.612Z,98158.72
2022-08-09T11:04:37.693Z,98174.28
2022-08-09T11:07:27.173Z,98156.09
2022-08-09T11:10:13.741Z,98152.28
2022-08-09T11:12:45.025Z,98169.38
2022-08-09T11:15:19.331Z,98171.63
2022-08-09T11:17:53.656Z,98174.84
2022-08-09T11:20:45.144Z,98159.47
2022-08-09T11:23:13.587Z,98163.38
2022-08-09T11:25:46.098Z,98159.41
2022-08-09T11:28:35.218Z,98155.16
2022-08-09T11:31:39.610Z,98165.91
2022-08-09T11:34:28.150Z,98164.31
2022-08-09T11:36:56.809Z,98166.84
2022-08-09T11:39:24.363Z,98160.56
2022-08-09T11:41:54.594Z,98158.19
2022-08-09T11:44:44.207Z,98156.75
2022-08-09T11:47:11.071Z,98155.22
2022-08-09T11:50:52.371Z,98147.13
2022-08-09T11:53:16.673Z,98150.56
2022-08-09T11:55:53.557Z,98141.03
2022-08-09T11:58:30.489Z,98156.25
2022-08-09T12:01:15.736Z,98149.41
2022-08-09T12:03:59.631Z,98151.78
2022-08-09T12:06:32.902Z,98157.91
2022-08-09T12:09:05.302Z,98152.59
2022-08-09T12:11:37.104Z,98142.00
2022-08-09T12:14:37.070Z,98144.81
2022-08-09T12:17:28.269Z,98132.13
2022-08-09T12:19:59.789Z,98134.22
2022-08-09T12:22:27.363Z,98134.31
2022-08-09T12:25:14.999Z,98140.44
2022-08-09T12:29:10.988Z,98136.28
2022-08-09T12:30:36.361Z,98129.06
2022-08-09T12:33:05.606Z,98137.94
2022-08-09T12:35:40.170Z,98130.81
2022-08-09T12:38:37.358Z,98122.94
2022-08-09T12:41:05.530Z,98130.81
2022-08-09T12:44:05.499Z,98124.94
2022-08-09T12:46:21.311Z,98103.66
2022-08-09T12:48:49.078Z,98103.84
2022-08-09T12:51:52.663Z,98125.38
2022-08-09T12:54:07.191Z,98114.63
2022-08-09T12:56:48.787Z,98112.47
2022-08-09T12:59:23.154Z,98105.44
2022-08-09T13:01:58.730Z,98112.41
2022-08-09T13:04:36.134Z,98111.47
2022-08-09T13:07:16.534Z,98108.84
2022-08-09T13:09:55.238Z,98101.75
2022-08-09T13:12:26.938Z,98100.69
2022-08-09T13:15:07.449Z,98106.69
2022-08-09T13:18:03.806Z,98105.31
2022-08-09T13:22:33.773Z,98098.06
2022-08-09T13:24:42.089Z,98090.19
2022-08-09T13:26:41.593Z,98092.25
2022-08-09T13:29:13.766Z,98092.69
2022-08-09T13:32:20.295Z,98092.88
2022-08-09T13:34:44.145Z,98086.69
2022-08-09T13:37:13.123Z,98095.28
2022-08-09T13:41:46.433Z,98090.25
2022-08-09T13:42:38.376Z,98093.47
2022-08-09T13:45:08.368Z,98081.69
2022-08-09T13:47:48.963Z,98082.72
2022-08-09T13:50:30.783Z,98077.28
2022-08-09T13:52:57.802Z,98071.44
2022-08-09T13:55:24.369Z,98071.84
2022-08-09T13:57:58.048Z,98075.47
2022-08-09T14:00:28.716Z,98072.78
2022-08-09T14:03:04.463Z,98076.13
2022-08-09T14:06:00.716Z,98071.19
2022-08-09T14:08:30.417Z,98070.59
2022-08-09T14:10:57.987Z,98072.53
2022-08-09T14:14:15.128Z,98074.75
2022-08-09T14:16:16.146Z,98076.66
2022-08-09T14:18:49.560Z,98070.13
2022-08-09T14:21:22.654Z,98065.31
2022-08-09T14:23:56.691Z,98073.66
2022-08-09T14:26:31.963Z,98068.19
2022-08-09T14:29:01.400Z,98067.31
2022-08-09T14:31:35.747Z,98071.81
2022-08-09T14:34:17.443Z,98069.69
2022-08-09T14:36:55.113Z,98069.88
2022-08-09T14:39:21.711Z,98064.47
2022-08-09T14:42:07.633Z,98061.22
2022-08-09T14:44:48.931Z,98075.03
2022-08-09T14:47:42.815Z,98073.09
2022-08-09T14:50:07.538Z,98069.34
2022-08-09T14:52:37.760Z,98068.81
2022-08-09T14:55:06.856Z,98073.16
2022-08-09T14:57:43.158Z,98074.00
2022-08-09T15:00:10.871Z,98071.78
2022-08-09T15:02:37.635Z,98068.28
2022-08-09T15:05:07.020Z,98072.06
2022-08-09T15:07:35.427Z,98059.00
2022-08-09T15:10:11.048Z,98074.19
2022-08-09T15:12:40.521Z,98074.97
2022-08-09T15:15:13.312Z,98070.91
2022-08-09T15:17:41.830Z,98064.69
2022-08-09T15:20:15.351Z,98082.22
2022-08-09T15:23:01.958Z,98079.25
2022-08-09T15:25:40.806Z,98075.84
2022-08-09T15:28:26.237Z,98064.47
2022-08-09T15:31:03.267Z,98064.94
2022-08-09T15:34:17.615Z,98065.72
2022-08-09T15:36:28.679Z,98073.00
2022-08-09T15:38:57.268Z,98067.00
2022-08-09T15:41:31.798Z,98065.91
2022-08-09T15:44:02.633Z,98062.97
2022-08-09T15:46:33.871Z,98075.19
2022-08-09T15:49:21.686Z,98071.38
2022-08-09T15:52:04.475Z,98056.13
2022-08-09T15:54:46.091Z,98064.78
2022-08-09T15:57:35.066Z,98060.88
2022-08-09T16:00:14.837Z,98061.34
2022-08-09T16:02:48.219Z,98050.50
2022-08-09T16:05:22.154Z,98058.13
2022-08-09T16:07:50.759Z,98054.16
2022-08-09T16:10:54.790Z,98052.94
2022-08-09T16:13:18.607Z,98057.72
2022-08-09T16:16:04.629Z,98050.69
2022-08-09T16:18:34.961Z,98056.91
2022-08-09T16:21:01.578Z,98048.19
2022-08-09T16:23:28.235Z,98048.47
2022-08-09T16:26:00.973Z,98048.75
2022-08-09T16:28:29.470Z,98059.50
2022-08-09T16:30:58.793Z,98052.91
2022-08-09T16:33:26.520Z,98052.81
2022-08-09T16:35:56.010Z,98062.50
2022-08-09T16:38:25.227Z,98061.56
2022-08-09T16:40:51.875Z,98068.25
2022-08-09T16:43:18.613Z,98061.97
2022-08-09T16:45:48.149Z,98069.25
2022-08-09T16:48:50.201Z,98059.28
2022-08-09T16:51:08.061Z,98069.78
2022-08-09T16:53:56.293Z,98064.38
2022-08-09T16:56:27.648Z,98054.84
2022-08-09T16:58:57.764Z,98053.69
2022-08-09T17:01:24.984Z,98062.03
2022-08-09T17:03:51.947Z,98059.81
2022-08-09T17:06:31.351Z,98055.97
2022-08-09T17:09:17.613Z,98060.19
2022-08-09T17:11:48.287Z,98069.91
2022-08-09T17:14:27.197Z,98064.97
2022-08-09T17:16:56.873Z,98063.81
2022-08-09T17:19:27.760Z,98080.50
2022-08-09T17:22:14.646Z,98071.84
2022-08-09T17:24:47.795Z,98065.59
2022-08-09T17:27:21.758Z,98073.38
2022-08-09T17:29:48.446Z,98078.63
2022-08-09T17:32:20.077Z,98075.88
2022-08-09T17:35:04.174Z,98085.72
2022-08-09T17:38:13.107Z,98075.09
2022-08-09T17:40:21.347Z,98086.38
2022-08-09T17:42:59.070Z,98082.13
2022-08-09T17:46:01.710Z,98081.38
2022-08-09T17:48:16.395Z,98082.06
2022-08-09T17:50:55.810Z,98071.69
2022-08-09T17:53:23.207Z,98078.09
2022-08-09T17:55:54.194Z,98082.03
2022-08-09T17:58:22.000Z,98087.25
2022-08-09T18:00:54.791Z,98078.09
2022-08-09T18:03:23.635Z,98083.91
2022-08-09T18:05:53.242Z,98082.03
2022-08-09T18:08:22.196Z,98088.06
2022-08-09T18:11:01.801Z,98091.88
2022-08-09T18:13:43.254Z,98090.06
2022-08-09T18:16:16.737Z,98090.28
2022-08-09T18:18:49.328Z,98092.91
2022-08-09T18:21:23.087Z,98101.84
2022-08-09T18:24:09.854Z,98097.44
2022-08-09T18:26:38.305Z,98103.19
2022-08-09T18:30:39.326Z,98105.16
2022-08-09T18:32:00.640Z,98110.94
2022-08-09T18:34:31.487Z,98106.19
2022-08-09T18:36:58.471Z,98103.25
2022-08-09T18:39:25.800Z,98110.16
2022-08-09T18:42:01.052Z,98117.78
2022-08-09T18:44:27.808Z,98107.31
2022-08-09T18:47:06.259Z,98115.84
2022-08-09T18:49:41.773Z,98121.69
2022-08-09T18:52:13.476Z,98122.03
2022-08-09T18:54:49.646Z,98136.19
2022-08-09T18:57:22.222Z,98126.09
2022-08-09T18:59:57.562Z,98133.81
2022-08-09T19:02:30.536Z,98137.06
2022-08-09T19:05:14.840Z,98130.81
2022-08-09T19:07:59.390Z,98138.06
2022-08-09T19:10:37.075Z,98143.50
2022-08-09T19:13:20.050Z,98146.63
2022-08-09T19:15:49.360Z,98147.94
2022-08-09T19:18:33.886Z,98149.97
2022-08-09T19:21:03.351Z,98147.22
2022-08-09T19:24:35.645Z,98161.16
2022-08-09T19:26:18.893Z,98163.09
2022-08-09T19:28:55.850Z,98163.56
2022-08-09T19:31:27.917Z,98156.25
2022-08-09T19:33:57.785Z,98166.03
2022-08-09T19:36:30.680Z,98172.13
2022-08-09T19:39:03.586Z,98162.34
2022-08-09T19:41:32.862Z,98167.94
2022-08-09T19:44:03.151Z,98159.16
2022-08-09T19:46:35.184Z,98171.97
2022-08-09T19:50:08.877Z,98168.59
2022-08-09T19:51:56.043Z,98173.00
2022-08-09T19:54:24.940Z,98177.38
2022-08-09T19:56:51.989Z,98170.03
2022-08-09T19:59:58.202Z,98171.47
2022-08-09T20:04:06.818Z,98177.69
2022-08-09T20:04:54.979Z,98168.50
2022-08-09T20:07:22.501Z,98179.44
2022-08-09T20:09:49.346Z,98177.84
2022-08-09T20:12:27.134Z,98173.75
2022-08-09T20:14:58.339Z,98181.38
2022-08-09T20:17:26.314Z,98168.91
2022-08-09T20:19:57.995Z,98185.25
2022-08-09T20:22:27.558Z,98181.34
2022-08-09T20:24:59.165Z,98181.44
2022-08-09T20:27:29.302Z,98181.28
2022-08-09T20:29:57.260Z,98186.44
2022-08-09T20:32:42.037Z,98183.56
2022-08-09T20:35:10.798Z,98178.84
2022-08-09T20:38:22.541Z,98178.69
2022-08-09T20:40:27.082Z,98173.38
2022-08-09T20:43:12.154Z,98177.91
2022-08-09T20:45:59.137Z,98174.63
2022-08-09T20:48:30.809Z,98179.38
2022-08-09T20:50:58.528Z,98182.47
2022-08-09T20:53:36.663Z,98188.47
2022-08-09T20:56:05.006Z,98178.75
2022-08-09T20:58:32.695Z,98171.59
2022-08-09T21:01:13.734Z,98179.22
2022-08-09T21:04:08.404Z,98170.56
2022-08-09T21:06:35.088Z,98179.22
2022-08-09T21:09:02.553Z,98182.09
2022-08-09T21:14:16.684Z,98186.84
2022-08-09T21:16:43.976Z,98182.50
2022-08-09T21:20:17.810Z,98183.53
2022-08-09T21:21:59.574Z,98184.78
2022-08-09T21:24:28.429Z,98181.28
2022-08-09T21:26:55.760Z,98182.94
2022-08-09T21:29:23.058Z,98177.38
2022-08-09T21:31:49.951Z,98175.94
2022-08-09T21:34:28.640Z,98170.59
2022-08-09T21:36:56.364Z,98171.19
2022-08-09T21:39:28.120Z,98168.94
2022-08-09T21:42:10.081Z,98166.44
2022-08-09T21:44:37.873Z,98168.69
2022-08-09T21:47:07.863Z,98165.19
2022-08-09T21:49:39.411Z,98158.59
2022-08-09T21:52:16.313Z,98157.56
2022-08-09T21:55:03.269Z,98157.94
2022-08-09T21:57:38.868Z,98164.69
2022-08-09T22:00:32.330Z,98152.34
2022-08-09T22:03:02.001Z,98167.72
2022-08-09T22:05:36.819Z,98159.91
2022-08-09T22:08:11.922Z,98162.56
2022-08-09T22:11:04.961Z,98160.63
2022-08-09T22:13:34.188Z,98161.25
2022-08-09T22:16:07.531Z,98169.59
2022-08-09T22:18:34.759Z,98176.97
2022-08-09T22:21:01.380Z,98179.59
2022-08-09T22:23:35.052Z,98179.38
2022-08-09T22:26:07.324Z,98176.47
2022-08-09T22:28:43.636Z,98187.66
2022-08-09T22:31:20.578Z,98174.53
2022-08-09T22:33:55.121Z,98182.75
2022-08-09T22:36:22.365Z,98181.91
2022-08-09T22:38:49.052Z,98187.25
2022-08-09T22:41:16.167Z,98191.06
2022-08-09T22:44:03.621Z,98181.97
2022-08-09T22:48:16.514Z,98187.47
2022-08-09T22:49:16.594Z,98183.56
2022-08-09T22:51:49.210Z,98188.84
2022-08-09T22:54:16.068Z,98192.47
2022-08-09T22:56:47.741Z,98187.88
2022-08-09T22:59:57.101Z,98192.94
2022-08-09T23:02:10.103Z,98188.63
2022-08-09T23:04:38.309Z,98193.75
2022-08-09T23:08:21.152Z,98195.56
2022-08-09T23:10:10.748Z,98195.38
2022-08-09T23:12:37.296Z,98194.31
2022-08-09T23:15:04.906Z,98193.69
2022-08-09T23:17:31.633Z,98203.22
2022-08-09T23:20:06.541Z,98195.81
2022-08-09T23:22:34.827Z,98199.31
2022-08-09T23:25:05.587Z,98195.81
2022-08-09T23:27:32.716Z,98194.81
2022-08-09T23:29:59.626Z,98192.53
2022-08-09T23:32:26.188Z,98186.97
2022-08-09T23:34:52.733Z,98188.38
2022-08-09T23:37:21.544Z,98184.22
2022-08-09T23:39:49.611Z,98177.22
2022-08-09T23:42:16.271Z,98182.53
2022-08-09T23:44:42.901Z,98179.00
2022-08-09T23:47:09.468Z,98165.19
2022-08-09T23:49:35.992Z,98179.75
2022-08-09T23:52:02.722Z,98170.56
2022-08-09T23:54:29.275Z,98174.69
2022-08-09T23:56:58.348Z,98171.19
2022-08-09T23:59:25.622Z,98174.44
